Latest Weather Observations for Singleton (Defence)

IDN60801

Issued at 7:03 pm EDT Wednesday 25 November 2020 (issued every 10 minutes, with the page automatically refreshed every 10 minutes)

About weather observations | Map of weather stations | Latest weather observations for NSW | Other Formats
Station Details ID: 061430 Name: SINGLETON DEFENCE AWS Lat: -32.70 Lon: 151.16 Height: 125.0 m
Data from the previous 72 hours. | See also: Recent months for locations in New South Wales
Date/Time
EDT
Temp
°C
App
Temp
°C
Dew
Point
°C
Rel
Hum
%
Delta-T
°C
Wind Press
QNH
hPa
Press
MSL
hPa
Rain since
9am
mm
Dir  Spd
km/h
Gust
km/h
Spd
kts
Gust
kts
25/07:00pm 22.0 19.1 12.8 56 5.3 E 20 28 11 15 - - 0.0
25/06:30pm 22.9 19.3 13.1 54 5.7 E 24 30 13 16 - - 0.0
25/06:00pm 24.0 21.0 13.8 53 6.0 E 22 28 12 15 - - 0.0
25/05:30pm 24.9 22.4 14.1 51 6.4 E 20 28 11 15 - - 0.0
25/05:00pm 24.8 23.1 13.7 50 6.5 E 15 28 8 15 - - 0.0
25/04:30pm 25.8 24.3 13.0 45 7.5 E 13 22 7 12 - - 0.0
25/04:00pm 26.2 25.5 14.3 48 7.1 ESE 11 20 6 11 - - 0.0
25/03:30pm 25.7 24.5 12.9 45 7.5 E 11 19 6 10 - - 0.0
25/03:00pm 25.8 24.0 13.3 46 7.4 E 15 26 8 14 - - 0.0
25/02:30pm 25.7 23.8 12.9 45 7.5 ENE 15 24 8 13 - - 0.0
25/02:00pm 24.6 22.4 13.2 49 6.7 ENE 17 28 9 15 - - 0.0
25/01:30pm 25.2 24.5 13.1 47 7.1 ENE 9 20 5 11 - - 0.0
25/01:00pm 24.8 23.8 13.4 49 6.7 E 11 20 6 11 - - 0.0
25/12:30pm 24.7 23.7 13.3 49 6.7 E 11 20 6 11 - - 0.0
25/12:00pm 23.9 23.0 12.5 49 6.6 E 9 20 5 11 - - 0.0
25/11:30am 22.9 21.9 13.4 55 5.5 E 11 20 6 11 - - 0.0
25/11:00am 23.2 22.6 14.7 58 5.1 E 11 19 6 10 - - 0.0
25/10:30am 21.3 20.7 13.5 61 4.5 E 9 17 5 9 - - 0.0
25/10:00am 20.6 20.5 14.0 66 3.8 ENE 7 13 4 7 - - 0.0
25/09:30am 21.2 20.7 13.9 63 4.3 E 9 17 5 9 - - 0.0
25/09:00am 20.5 20.8 14.4 68 3.6 E 6 13 3 7 - - 0.0
25/08:30am 19.6 20.1 15.5 77 2.4 E 7 13 4 7 - - 0.0
25/08:00am 19.5 20.4 16.2 81 2.0 NE 6 9 3 5 - - 0.0
25/07:30am 16.7 17.6 15.1 90 0.9 NNE 4 4 2 2 - - 0.0
25/07:00am 16.1 17.3 14.8 92 0.8 NNE 2 4 1 2 - - 0.0
25/06:30am 15.4 15.4 13.6 89 1.0 NNE 6 6 3 3 - - 0.0
25/06:00am 15.5 15.6 13.9 90 0.9 NNE 6 7 3 4 - - 0.0
25/05:30am 15.5 15.6 14.0 91 0.9 NNE 6 6 3 3 - - 0.0
25/05:00am 15.5 15.6 13.9 90 0.9 NNE 6 7 3 4 - - 0.0
25/04:30am 15.6 15.7 14.0 90 0.9 NNE 6 6 3 3 - - 0.0
25/04:00am 15.7 16.2 13.9 89 1.0 NNE 4 6 2 3 - - 0.0
25/03:30am 16.4 16.4 14.1 86 1.3 S 7 9 4 5 - - 0.0
25/03:00am 16.7 16.3 14.0 84 1.5 S 9 11 5 6 - - 0.0
25/02:30am 16.9 16.2 14.2 84 1.5 S 11 15 6 8 - - 0.0
25/02:00am 16.7 15.9 14.0 84 1.5 S 11 17 6 9 - - 0.0
25/01:30am 16.6 15.4 14.1 85 1.4 S 13 15 7 8 - - 0.0
25/01:00am 16.1 15.6 13.8 86 1.3 SSE 9 13 5 7 - - 0.0
25/12:30am 16.3 15.8 13.8 85 1.4 SSE 9 11 5 6 - - 0.0
25/12:00am 16.7 16.8 13.8 83 1.7 ESE 6 7 3 4 - - 0.0
 
Date/Time
EDT
Temp
°C
App
Temp
°C
Dew
Point
°C
Rel
Hum
%
Delta-T
°C
Wind Press
QNH
hPa
Press
MSL
hPa
Rain since
9am
mm
Dir  Spd
km/h
Gust
km/h
Spd
kts
Gust
kts
24/11:30pm 17.1 17.8 14.4 84 1.6 ESE 4 6 2 3 - - 0.0
24/11:00pm 17.5 17.6 14.4 82 1.8 ESE 7 9 4 5 - - 0.0
24/10:30pm 17.7 17.0 14.2 80 2.0 ESE 11 15 6 8 - - 0.0
24/10:00pm 18.3 17.6 14.2 77 2.4 SE 11 15 6 8 - - 0.0
24/09:30pm 18.3 17.9 14.0 76 2.5 ESE 9 13 5 7 - - 0.0
24/09:00pm 18.3 17.4 13.8 75 2.6 ESE 11 17 6 9 - - 0.0
24/08:30pm 18.5 16.7 13.4 72 2.9 ESE 15 22 8 12 - - 0.0
24/08:00pm 18.9 17.1 13.3 70 3.2 ESE 15 19 8 10 - - 0.0
24/07:30pm 19.5 16.6 12.8 65 3.8 ESE 20 30 11 16 - - 0.0
24/07:00pm 20.1 17.1 12.1 60 4.5 ESE 19 24 10 13 - - 0.0
24/06:30pm 20.8 17.9 12.8 60 4.6 ESE 20 28 11 15 - - 0.0
24/06:00pm 21.1 17.9 13.0 60 4.6 ESE 22 32 12 17 - - 0.0
24/05:30pm 21.8 18.2 13.2 58 5.0 ESE 24 33 13 18 - - 0.0
24/05:00pm 23.0 19.5 13.5 55 5.5 E 24 33 13 18 - - 0.0
24/04:30pm 23.7 21.1 13.8 53 5.8 ESE 20 32 11 17 - - 0.0
24/04:00pm 23.5 20.2 13.9 55 5.6 ESE 24 35 13 19 - - 0.0
24/03:30pm 24.1 22.0 14.8 56 5.6 E 19 33 10 18 - - 0.0
24/03:00pm 24.4 21.8 14.8 55 5.8 E 22 30 12 16 - - 0.0
24/02:30pm 22.9 21.4 14.2 58 5.1 ESE 15 22 8 12 - - 0.0
24/02:00pm 23.5 21.9 15.0 59 5.1 NE 17 24 9 13 - - 0.0
24/01:30pm 23.7 23.3 14.1 55 5.7 ESE 9 15 5 8 - - 0.0
24/01:00pm 23.8 23.4 15.3 59 5.1 E 11 17 6 9 - - 0.0
24/12:30pm 22.3 21.9 15.2 64 4.2 E 11 19 6 10 - - 0.0
24/12:00pm 22.9 22.6 14.5 59 5.0 E 9 15 5 8 - - 0.0
24/11:30am 21.6 20.3 14.7 65 4.1 E 15 20 8 11 - - 0.0
24/11:00am 22.4 22.6 14.3 60 4.8 S 6 9 3 5 - - 0.0
24/10:30am 21.2 21.1 13.4 61 4.5 SSW 6 9 3 5 - - 0.0
24/10:00am 21.2 20.2 13.4 61 4.5 S 11 19 6 10 - - 0.0
24/09:30am 21.4 20.5 13.6 61 4.5 S 11 19 6 10 - - 0.0
24/09:00am 20.4 18.9 14.3 68 3.6 SSE 15 20 8 11 - - 0.0
24/08:30am 19.7 18.5 13.9 69 3.4 S 13 19 7 10 - - 0.0
24/08:00am 18.9 18.8 14.0 73 2.8 SSE 7 15 4 8 - - 0.0
24/07:30am 18.6 19.1 15.1 80 2.1 SE 6 7 3 4 - - 0.0
24/07:00am 17.5 18.0 15.0 85 1.5 SE 6 7 3 4 - - 0.0
24/06:30am 16.9 17.9 14.2 84 1.5 ESE 2 6 1 3 - - 0.0
24/06:00am 16.8 17.3 14.1 84 1.5 ESE 4 6 2 3 - - 0.0
24/05:30am 16.6 18.2 14.8 89 1.0 CALM 0 0 0 0 - - 0.0
24/05:00am 16.3 17.8 14.7 90 0.9 CALM 0 2 0 1 - - 0.0
24/04:30am 17.0 17.5 15.0 88 1.2 ESE 6 6 3 3 - - 0.0
24/04:00am 17.1 17.6 14.9 87 1.3 ESE 6 9 3 5 - - 0.0
24/03:30am 18.8 19.5 14.5 76 2.5 SE 4 6 2 3 - - 0.0
24/03:00am 17.9 17.9 15.2 84 1.6 SE 9 9 5 5 - - 0.0
24/02:30am 17.2 18.4 15.0 87 1.3 ESE 2 6 1 3 - - 0.0
24/02:00am 17.6 18.5 15.2 86 1.4 ESE 4 6 2 3 - - 0.0
24/01:30am 17.9 18.4 15.0 83 1.7 ESE 6 9 3 5 - - 0.0
24/01:00am 18.6 19.0 15.3 81 1.9 SE 7 11 4 6 - - 0.0
24/12:30am 18.9 18.8 16.0 83 1.7 ESE 11 15 6 8 - - 0.0
24/12:00am 17.0 17.2 14.6 86 1.4 SW 7 11 4 6 - - 0.0
 
Date/Time
EDT
Temp
°C
App
Temp
°C
Dew
Point
°C
Rel
Hum
%
Delta-T
°C
Wind Press
QNH
hPa
Press
MSL
hPa
Rain since
9am
mm
Dir  Spd
km/h
Gust
km/h
Spd
kts
Gust
kts
23/11:30pm 19.4 20.2 15.9 80 2.1 NW 6 9 3 5 - - 0.0
23/11:00pm 19.9 20.6 16.0 78 2.3 NW 7 11 4 6 - - 0.0
23/10:30pm 20.4 20.3 16.0 76 2.6 NW 11 17 6 9 - - 0.0
23/10:00pm 20.6 19.8 16.0 75 2.8 WNW 15 22 8 12 - - 0.0
23/09:30pm 20.9 20.1 16.1 74 2.9 NW 15 20 8 11 - - 0.0
23/09:00pm 21.1 19.0 16.1 73 3.0 NW 22 28 12 15 - - 0.0
23/08:30pm 21.2 19.3 15.7 71 3.3 NW 20 28 11 15 - - 0.0
23/08:00pm 21.6 20.9 15.4 68 3.7 NW 13 17 7 9 - - 0.0
23/07:30pm 21.6 21.4 15.7 69 3.5 NNW 11 15 6 8 - - 0.0
23/07:00pm 23.2 22.6 14.7 58 5.1 NW 11 15 6 8 - - 0.0
23/06:30pm 24.2 23.8 14.0 53 6.0 NW 9 17 5 9 - - 0.0
23/06:00pm 24.5 22.1 13.7 51 6.4 WNW 19 28 10 15 - - 0.0
23/05:30pm 25.0 21.9 13.5 48 6.8 W 22 39 12 21 - - 0.0
23/05:00pm 25.4 23.2 13.3 47 7.1 WNW 17 35 9 19 - - 0.0
23/04:30pm 25.4 21.9 13.3 47 7.1 NW 24 35 13 19 - - 0.0
23/04:18pm 25.6 21.0 12.4 43 7.6 NW 28 52 15 28 - - 0.0
23/04:00pm 24.7 20.3 13.0 48 6.8 NNW 28 46 15 25 - - 0.0
23/03:30pm 24.3 21.5 13.2 50 6.5 NW 20 32 11 17 - - 0.0
23/03:00pm 24.3 21.5 13.2 50 6.5 W 20 33 11 18 - - 0.0
23/02:30pm 24.4 21.1 13.9 52 6.2 WSW 24 39 13 21 - - 0.0
23/02:00pm 25.2 20.8 15.2 54 6.1 SW 32 52 17 28 - - 0.0
23/01:48pm 26.4 22.6 15.8 52 6.5 WSW 30 54 16 29 - - 0.0
23/01:30pm 26.8 25.5 16.7 54 6.3 WSW 19 32 10 17 - - 0.0
23/01:00pm 28.3 26.9 16.9 50 7.2 W 20 35 11 19 - - 0.0
23/12:30pm 27.6 26.3 15.9 49 7.2 W 17 28 9 15 - - 0.0
23/12:00pm 27.3 27.6 16.9 53 6.5 W 11 17 6 9 - - 0.0
23/11:30am 26.9 29.0 19.0 62 5.1 WNW 6 9 3 5 - - 0.0
23/11:00am 25.9 27.8 18.6 64 4.7 NNW 6 9 3 5 - - 0.0
23/10:30am 25.2 26.8 18.2 65 4.4 N 7 13 4 7 - - 0.0
23/10:00am 25.6 27.7 17.3 60 5.2 NW 2 4 1 2 - - 0.0
23/09:30am 24.6 26.9 18.5 69 3.9 NW 4 6 2 3 - - 0.0
23/09:00am 24.3 26.3 18.7 71 3.6 NW 6 9 3 5 - - 0.0
23/08:30am 24.4 26.1 18.1 68 4.0 WSW 6 7 3 4 - - 0.0
23/08:00am 23.4 24.8 17.8 71 3.5 WSW 7 9 4 5 - - 0.0
23/07:30am 23.5 24.8 17.0 67 4.0 WSW 6 7 3 4 - - 0.0
23/07:00am 24.0 24.8 16.3 62 4.7 WSW 7 9 4 5 - - 0.0
23/06:30am 22.4 22.8 17.3 73 3.2 WSW 11 13 6 7 - - 0.0
23/06:00am 23.5 24.4 16.5 65 4.3 W 7 11 4 6 - - 0.0
23/05:30am 22.6 23.4 17.3 72 3.3 SW 9 15 5 8 - - 0.0
23/05:00am 21.0 21.8 18.2 84 1.8 SW 11 19 6 10 - - 0.0
23/04:30am 20.7 22.5 18.3 86 1.5 WNW 6 7 3 4 - - 0.0
23/04:00am 21.0 22.4 18.6 86 1.5 NNW 9 13 5 7 - - 0.0
23/03:30am 19.8 22.2 17.9 89 1.2 WSW 2 6 1 3 - - 0.0
23/03:00am 20.5 22.2 18.6 89 1.2 WSW 7 9 4 5 - - 0.0
23/02:30am 20.9 23.0 18.1 84 1.7 WSW 4 6 2 3 - - 0.0
23/02:00am 20.9 21.8 18.3 85 1.6 WSW 11 13 6 7 - - 0.0
23/01:30am 20.6 22.2 18.2 86 1.5 SSW 7 9 4 5 - - 0.0
23/01:00am 21.4 22.2 18.2 82 2.0 SSW 11 11 6 6 - - 0.0
23/12:30am 21.3 22.9 18.3 83 1.9 S 7 9 4 5 - - 0.0
23/12:00am 21.9 24.7 17.9 78 2.5 CALM 0 0 0 0 - - 0.0
 
Date/Time
EDT
Temp
°C
App
Temp
°C
Dew
Point
°C
Rel
Hum
%
Delta-T
°C
Wind Press
QNH
hPa
Press
MSL
hPa
Rain since
9am
mm
Dir  Spd
km/h
Gust
km/h
Spd
kts
Gust
kts
22/11:30pm 22.2 23.7 18.0 77 2.6 SE 7 9 4 5 - - 0.0
22/11:00pm 21.8 23.3 18.0 79 2.4 ESE 7 9 4 5 - - 0.0
22/10:30pm 22.0 23.6 18.2 79 2.4 ESE 7 9 4 5 - - 0.0
22/10:00pm 22.4 24.2 18.2 77 2.6 ESE 6 6 3 3 - - 0.0
22/09:30pm 22.7 24.5 18.3 76 2.8 ESE 6 7 3 4 - - 0.0
22/09:00pm 22.6 24.4 18.4 77 2.6 ESE 6 6 3 3 - - 0.0
22/08:30pm 22.7 24.4 18.5 77 2.7 ESE 7 15 4 8 - - 0.0
22/08:00pm 22.8 24.1 19.2 80 2.3 E 11 17 6 9 - - 0.0
22/07:30pm 23.9 25.4 18.8 73 3.3 ESE 9 13 5 7 - - 0.0

Other formats

Comma delimited format used in spreadsheet applications
http://www.bom.gov.au/fwo/IDN60801/IDN60801.99738.axf

JavaScript Object Notation format (JSON) in row-major order
http://www.bom.gov.au/fwo/IDN60801/IDN60801.99738.json

Data quality

Most of these data are generated automatically and are frequently updated. Quality checks on data are not normally performed. It is possible for incorrect values to appear. Refer to information at About Latest Weather Observations and please check the disclaimer before using these data.